createdAt,value
2019-04-30T00:01:36.218Z,9.33
2019-04-30T00:04:15.748Z,8.83
2019-04-30T00:06:48.238Z,8.23
2019-04-30T00:09:25.119Z,7.30
2019-04-30T00:12:01.042Z,7.47
2019-04-30T00:14:37.142Z,11.30
2019-04-30T00:17:03.847Z,13.23
2019-04-30T00:19:37.775Z,9.67
2019-04-30T00:22:09.506Z,12.20
2019-04-30T00:24:46.731Z,10.73
2019-04-30T00:27:15.156Z,8.63
2019-04-30T00:29:49.686Z,14.03
2019-04-30T00:32:21.467Z,7.23
2019-04-30T00:34:53.085Z,10.57
2019-04-30T00:37:25.477Z,7.20
2019-04-30T00:39:57.166Z,8.90
2019-04-30T00:42:28.973Z,10.07
2019-04-30T00:45:07.021Z,13.30
2019-04-30T00:47:39.504Z,8.20
2019-04-30T00:50:11.195Z,6.50
2019-04-30T00:52:42.811Z,9.37
2019-04-30T00:55:15.046Z,12.03
2019-04-30T00:57:47.555Z,7.80
2019-04-30T01:00:28.077Z,8.60
2019-04-30T01:03:00.787Z,8.17
2019-04-30T01:05:33.169Z,9.73
2019-04-30T01:08:07.129Z,12.77
2019-04-30T01:10:38.872Z,8.80
2019-04-30T01:13:12.131Z,7.47
2019-04-30T01:15:48.029Z,14.47
2019-04-30T01:18:17.119Z,12.30
2019-04-30T01:20:48.866Z,15.20
2019-04-30T01:23:21.389Z,12.20
2019-04-30T01:32:56.566Z,9.80
2019-04-30T01:35:30.933Z,9.00
2019-04-30T01:38:04.130Z,11.60
2019-04-30T01:40:33.823Z,12.47
2019-04-30T01:43:05.505Z,11.47
2019-04-30T01:45:38.697Z,11.50
2019-04-30T02:03:42.623Z,9.40
2019-04-30T02:06:14.283Z,10.27
2019-04-30T02:08:47.072Z,10.57
2019-04-30T02:11:19.085Z,12.40
2019-04-30T02:13:51.090Z,11.00
2019-04-30T02:16:22.661Z,7.70
2019-04-30T02:18:54.279Z,14.53
2019-04-30T02:21:25.946Z,10.23
2019-04-30T02:23:58.866Z,13.80
2019-04-30T02:26:30.613Z,10.10
2019-04-30T02:29:02.301Z,11.03
2019-04-30T02:31:34.918Z,11.83
2019-04-30T02:34:13.506Z,11.20
2019-04-30T02:36:54.484Z,13.70
2019-04-30T02:39:26.227Z,16.47
2019-04-30T02:41:59.921Z,11.83
2019-04-30T02:44:33.318Z,10.43
2019-04-30T02:47:05.894Z,10.53
2019-04-30T02:49:39.862Z,14.30
2019-04-30T02:52:13.018Z,11.10
2019-04-30T02:54:49.949Z,10.30
2019-04-30T02:57:23.429Z,13.53
2019-04-30T03:00:05.767Z,9.57
2019-04-30T03:02:39.461Z,17.17
2019-04-30T03:05:13.763Z,10.47
2019-04-30T03:07:44.713Z,11.63
2019-04-30T03:10:19.559Z,13.43
2019-04-30T03:12:50.201Z,13.97
2019-04-30T03:15:22.871Z,15.77
2019-04-30T03:18:09.679Z,17.43
2019-04-30T03:21:02.548Z,12.30
2019-04-30T03:23:34.101Z,14.60
2019-04-30T03:26:05.660Z,11.90
2019-04-30T03:28:39.587Z,15.07
2019-04-30T03:31:12.465Z,11.63
2019-04-30T03:33:44.065Z,13.40
2019-04-30T03:36:15.690Z,17.20
2019-04-30T03:38:49.899Z,14.87
2019-04-30T03:41:20.612Z,14.70
2019-04-30T03:43:52.287Z,16.93
2019-04-30T03:46:25.190Z,20.40
2019-04-30T03:48:56.749Z,18.17
2019-04-30T03:51:30.346Z,16.37
2019-04-30T03:54:01.564Z,19.80
2019-04-30T03:56:33.385Z,17.20
2019-04-30T03:59:05.120Z,18.07
2019-04-30T04:01:49.753Z,25.10
2019-04-30T04:04:40.517Z,24.03
2019-04-30T04:07:42.965Z,23.10
2019-04-30T04:10:25.940Z,33.83
2019-04-30T04:33:29.657Z,25.93
2019-04-30T04:36:01.524Z,23.83
2019-04-30T05:40:54.925Z,33.70
2019-04-30T05:43:28.825Z,32.53
2019-04-30T05:46:00.286Z,35.00
2019-04-30T05:48:32.027Z,35.90
2019-04-30T05:51:03.717Z,41.73
2019-04-30T05:53:35.737Z,33.90
2019-04-30T05:56:09.230Z,37.20
2019-04-30T05:58:40.929Z,35.47
2019-04-30T06:01:12.510Z,35.67
2019-04-30T06:03:44.206Z,38.90
2019-04-30T06:06:16.582Z,34.17
2019-04-30T06:09:04.651Z,37.80
2019-04-30T06:11:49.058Z,41.63
2019-04-30T06:14:29.343Z,37.90
2019-04-30T06:17:09.228Z,37.87
2019-04-30T06:19:40.891Z,36.37
2019-04-30T06:22:12.551Z,30.90
2019-04-30T06:24:44.277Z,39.00
2019-04-30T06:27:19.174Z,37.63
2019-04-30T06:29:51.202Z,50.03
2019-04-30T06:32:23.086Z,38.13
2019-04-30T06:34:54.758Z,39.77
2019-04-30T06:37:28.827Z,35.80
2019-04-30T06:40:00.282Z,38.93
2019-04-30T06:42:32.182Z,37.50
2019-04-30T06:45:04.470Z,36.23
2019-04-30T06:47:38.956Z,44.70
2019-04-30T06:50:12.213Z,36.63
2019-04-30T06:52:54.174Z,40.33
2019-04-30T06:55:19.097Z,39.10
2019-04-30T06:57:50.619Z,37.90
2019-04-30T07:00:35.599Z,37.87
2019-04-30T07:03:09.672Z,36.70
2019-04-30T07:05:41.741Z,38.37
2019-04-30T07:08:42.762Z,36.40
2019-04-30T07:11:37.016Z,35.33
2019-04-30T07:14:09.708Z,35.90
2019-04-30T07:16:41.396Z,43.47
2019-04-30T07:19:12.986Z,36.77
2019-04-30T07:21:45.356Z,34.40
2019-04-30T07:24:20.819Z,40.43
2019-04-30T07:26:54.740Z,35.30
2019-04-30T07:29:25.625Z,34.07
2019-04-30T07:31:59.133Z,33.57
2019-04-30T07:34:36.649Z,34.13
2019-04-30T07:37:16.428Z,31.13
2019-04-30T07:39:38.990Z,27.43
2019-04-30T07:42:10.338Z,24.10
2019-04-30T07:44:41.896Z,26.07
2019-04-30T07:47:13.410Z,23.30
2019-04-30T07:49:52.929Z,23.90
2019-04-30T07:52:22.773Z,21.43
2019-04-30T07:54:55.734Z,22.67
2019-04-30T07:57:29.150Z,20.80
2019-04-30T08:00:13.225Z,22.80
2019-04-30T08:02:52.575Z,23.00
2019-04-30T08:05:30.384Z,20.63
2019-04-30T08:08:16.228Z,21.13
2019-04-30T08:10:35.608Z,17.93
2019-04-30T08:13:13.779Z,16.80
2019-04-30T08:15:42.871Z,19.60
2019-04-30T08:18:14.702Z,21.20
2019-04-30T08:20:46.394Z,16.73
2019-04-30T08:23:33.549Z,18.37
2019-04-30T08:25:52.841Z,16.30
2019-04-30T08:28:26.089Z,20.47
2019-04-30T08:30:58.914Z,15.93
2019-04-30T08:33:30.642Z,17.53
2019-04-30T08:36:02.411Z,18.33
2019-04-30T08:38:34.235Z,17.17
2019-04-30T08:41:09.286Z,18.03
2019-04-30T08:43:42.968Z,24.33
2019-04-30T08:46:18.994Z,17.00
2019-04-30T08:48:53.768Z,17.97
2019-04-30T08:51:25.103Z,17.97
2019-04-30T08:53:58.554Z,19.03
2019-04-30T08:56:30.039Z,16.47
2019-04-30T08:59:01.827Z,15.77
2019-04-30T09:01:33.485Z,25.60
2019-04-30T09:04:10.364Z,21.10
2019-04-30T09:06:41.765Z,16.80
2019-04-30T09:09:18.609Z,14.73
2019-04-30T09:11:55.196Z,17.40
2019-04-30T09:14:23.197Z,17.60
2019-04-30T09:16:55.974Z,16.53
2019-04-30T09:19:29.596Z,18.13
2019-04-30T09:22:01.329Z,16.33
2019-04-30T09:24:33.552Z,17.97
2019-04-30T09:27:10.648Z,16.90
2019-04-30T09:29:41.295Z,25.07
2019-04-30T09:32:19.218Z,17.67
2019-04-30T09:34:49.529Z,20.37
2019-04-30T09:37:21.389Z,17.00
2019-04-30T09:39:53.085Z,16.27
2019-04-30T09:42:24.796Z,18.30
2019-04-30T09:44:57.799Z,19.20
2019-04-30T09:47:30.659Z,15.93
2019-04-30T09:50:02.260Z,16.03
2019-04-30T09:52:35.805Z,17.77
2019-04-30T09:55:09.406Z,17.90
2019-04-30T09:57:41.092Z,19.27
2019-04-30T10:00:13.508Z,16.43
2019-04-30T10:02:48.815Z,22.33
2019-04-30T10:05:20.177Z,18.13
2019-04-30T10:07:52.423Z,19.17
2019-04-30T10:10:30.376Z,29.63
2019-04-30T10:13:02.391Z,18.63
2019-04-30T10:16:04.707Z,20.77
2019-04-30T10:18:36.731Z,22.10
2019-04-30T10:21:09.129Z,19.90
2019-04-30T10:23:40.745Z,23.30
2019-04-30T10:26:12.632Z,24.43
2019-04-30T10:28:46.716Z,19.07
2019-04-30T10:31:18.726Z,17.13
2019-04-30T10:33:52.024Z,18.60
2019-04-30T10:36:23.679Z,18.57
2019-04-30T10:38:55.538Z,16.83
2019-04-30T10:41:28.768Z,18.67
2019-04-30T10:44:06.339Z,21.90
2019-04-30T10:46:41.567Z,21.73
2019-04-30T10:49:19.420Z,24.23
2019-04-30T10:51:51.602Z,18.87
2019-04-30T10:54:26.412Z,21.70
2019-04-30T10:56:59.136Z,21.23
2019-04-30T10:59:30.670Z,22.33
2019-04-30T11:02:03.931Z,20.90
2019-04-30T11:04:35.930Z,22.77
2019-04-30T11:07:09.423Z,20.77
2019-04-30T11:09:41.106Z,20.80
2019-04-30T11:12:12.924Z,22.60
2019-04-30T11:14:47.389Z,20.80
2019-04-30T11:17:19.736Z,20.23
2019-04-30T11:19:52.795Z,20.40
2019-04-30T11:22:27.848Z,21.37
2019-04-30T11:25:02.596Z,18.83
2019-04-30T11:27:33.536Z,21.73
2019-04-30T11:30:18.460Z,19.60
2019-04-30T11:32:42.566Z,20.60
2019-04-30T11:35:15.126Z,20.40
2019-04-30T11:37:46.957Z,19.57
2019-04-30T11:40:34.465Z,17.70
2019-04-30T11:42:59.718Z,18.93
2019-04-30T11:46:38.435Z,20.30
2019-04-30T11:49:10.199Z,19.87
2019-04-30T11:51:45.381Z,20.47
2019-04-30T11:54:18.645Z,18.80
2019-04-30T11:56:50.590Z,23.20
2019-04-30T11:59:22.348Z,19.87
2019-04-30T12:01:55.756Z,19.57
2019-04-30T12:04:30.070Z,19.90
2019-04-30T12:07:06.132Z,24.00
2019-04-30T12:09:56.767Z,21.07
2019-04-30T12:12:28.974Z,24.90
2019-04-30T12:15:02.750Z,21.27
2019-04-30T12:17:35.701Z,23.10
2019-04-30T12:20:13.301Z,23.00
2019-04-30T12:22:44.874Z,23.13
2019-04-30T12:25:18.576Z,24.73
2019-04-30T12:27:52.872Z,23.97
2019-04-30T12:30:25.673Z,22.70
2019-04-30T12:33:00.219Z,24.67
2019-04-30T12:35:31.838Z,24.33
2019-04-30T12:38:03.610Z,25.90
2019-04-30T12:40:35.364Z,25.13
2019-04-30T12:43:07.022Z,24.40
2019-04-30T12:45:39.382Z,24.00
2019-04-30T12:48:26.602Z,27.67
2019-04-30T12:51:28.904Z,27.93
2019-04-30T12:54:04.335Z,31.33
2019-04-30T12:56:41.750Z,27.37
2019-04-30T12:59:13.484Z,28.30
2019-04-30T13:01:45.319Z,28.27
2019-04-30T13:04:20.080Z,27.80
2019-04-30T13:06:52.174Z,28.93
2019-04-30T13:09:24.543Z,28.30
2019-04-30T13:11:56.651Z,27.30
2019-04-30T13:14:30.154Z,29.50
2019-04-30T13:17:02.059Z,29.90
2019-04-30T13:19:33.738Z,28.37
2019-04-30T13:22:11.306Z,28.40
2019-04-30T13:24:45.047Z,30.80
2019-04-30T13:27:16.838Z,28.90
2019-04-30T13:30:09.238Z,29.43
2019-04-30T13:32:49.334Z,31.90
2019-04-30T13:35:20.817Z,30.47
2019-04-30T13:37:57.488Z,35.00
2019-04-30T13:40:48.961Z,31.03
2019-04-30T13:43:40.601Z,31.53
2019-04-30T13:46:13.135Z,34.67
2019-04-30T13:48:44.864Z,33.90
2019-04-30T13:51:16.434Z,32.30
2019-04-30T13:53:48.126Z,32.73
2019-04-30T13:56:20.230Z,34.57
2019-04-30T13:58:51.994Z,33.73
2019-04-30T14:01:23.507Z,35.07
2019-04-30T14:04:08.863Z,34.07
2019-04-30T14:06:48.867Z,40.23
2019-04-30T14:09:26.274Z,33.87
2019-04-30T14:11:57.848Z,34.60
2019-04-30T14:14:29.864Z,32.77
2019-04-30T14:17:01.468Z,32.07
2019-04-30T14:19:34.103Z,33.87
2019-04-30T14:22:08.811Z,32.77
2019-04-30T14:24:42.037Z,33.37
2019-04-30T14:27:13.742Z,34.30
2019-04-30T14:29:45.349Z,35.67
2019-04-30T14:32:18.605Z,34.37
2019-04-30T14:34:50.634Z,33.70
2019-04-30T14:37:22.564Z,33.13
2019-04-30T14:39:54.654Z,34.70
2019-04-30T14:42:27.542Z,36.87
2019-04-30T14:45:08.346Z,34.70
2019-04-30T14:48:19.955Z,33.60
2019-04-30T14:50:51.075Z,35.67
2019-04-30T14:53:39.089Z,34.43
2019-04-30T14:56:19.682Z,37.63
2019-04-30T14:59:13.662Z,32.30
2019-04-30T15:02:10.314Z,30.47
2019-04-30T15:04:42.021Z,34.70
2019-04-30T15:07:13.707Z,31.63
2019-04-30T15:09:45.220Z,31.87
2019-04-30T15:12:17.480Z,31.27
2019-04-30T15:14:49.424Z,31.33
2019-04-30T15:17:21.097Z,30.60
2019-04-30T15:19:54.671Z,31.87
2019-04-30T15:22:26.411Z,31.03
2019-04-30T15:24:59.203Z,31.90
2019-04-30T15:27:30.988Z,32.37
2019-04-30T15:30:02.652Z,34.13
2019-04-30T15:32:36.200Z,36.27
2019-04-30T15:35:10.029Z,36.50
2019-04-30T15:37:43.374Z,34.17
2019-04-30T15:40:16.130Z,33.60
2019-04-30T15:42:49.505Z,33.90
2019-04-30T15:45:21.180Z,34.60
2019-04-30T15:47:52.950Z,33.70
2019-04-30T15:50:24.507Z,33.63
2019-04-30T15:52:56.197Z,31.90
2019-04-30T15:55:27.704Z,32.17
2019-04-30T15:58:09.310Z,31.87
2019-04-30T16:00:41.472Z,31.20
2019-04-30T16:03:18.989Z,31.50
2019-04-30T16:05:52.262Z,33.57
2019-04-30T16:08:31.716Z,32.90
2019-04-30T16:11:21.231Z,32.40
2019-04-30T16:14:18.645Z,32.23
2019-04-30T16:17:09.864Z,34.37
2019-04-30T16:19:41.611Z,36.73
2019-04-30T16:22:13.499Z,35.30
2019-04-30T16:24:49.493Z,35.43
2019-04-30T16:27:21.433Z,34.03
2019-04-30T16:29:53.378Z,33.90
2019-04-30T16:32:25.169Z,35.43
2019-04-30T16:34:59.140Z,34.07
2019-04-30T16:37:30.445Z,35.63
2019-04-30T16:40:02.382Z,37.67
2019-04-30T16:42:34.324Z,33.60
2019-04-30T16:45:09.150Z,35.70
2019-04-30T16:47:40.875Z,33.10
2019-04-30T16:50:13.077Z,35.87
2019-04-30T16:52:44.757Z,33.90
2019-04-30T16:55:16.429Z,34.77
2019-04-30T16:57:49.816Z,33.80
2019-04-30T17:00:23.608Z,35.53
2019-04-30T17:03:01.404Z,33.37
2019-04-30T17:05:53.867Z,34.43
2019-04-30T17:08:43.235Z,37.17
2019-04-30T17:11:20.921Z,37.93
2019-04-30T17:13:56.022Z,34.83
2019-04-30T17:16:30.103Z,36.67
2019-04-30T17:19:01.209Z,38.40
2019-04-30T17:21:32.836Z,40.57
2019-04-30T17:24:04.568Z,39.40
2019-04-30T17:26:36.207Z,40.10
2019-04-30T17:29:10.841Z,45.50
2019-04-30T17:31:53.271Z,39.70
2019-04-30T17:34:25.117Z,40.33
2019-04-30T17:36:59.034Z,44.90
2019-04-30T17:39:30.646Z,45.00
2019-04-30T17:42:02.551Z,40.30
2019-04-30T17:44:34.541Z,41.77
2019-04-30T17:47:06.311Z,42.70
2019-04-30T17:49:38.088Z,46.30
2019-04-30T17:52:09.906Z,43.70
2019-04-30T17:54:41.669Z,43.90
2019-04-30T17:57:13.506Z,41.70
2019-04-30T17:59:45.501Z,41.30
2019-04-30T18:02:19.531Z,41.40
2019-04-30T18:04:51.297Z,41.43
2019-04-30T18:07:23.128Z,44.13
2019-04-30T18:09:54.909Z,43.67
2019-04-30T18:12:26.703Z,43.40
2019-04-30T18:15:00.029Z,49.00
2019-04-30T18:17:32.053Z,42.37
2019-04-30T18:20:13.266Z,39.43
2019-04-30T18:23:06.945Z,46.10
2019-04-30T18:25:46.281Z,39.23
2019-04-30T18:28:19.089Z,37.23
2019-04-30T18:30:51.274Z,41.47
2019-04-30T18:33:24.049Z,41.43
2019-04-30T18:35:59.543Z,40.97
2019-04-30T18:38:31.255Z,42.07
2019-04-30T18:41:04.415Z,41.43
2019-04-30T18:43:38.512Z,40.10
2019-04-30T18:46:10.763Z,43.67
2019-04-30T18:48:42.733Z,41.80
2019-04-30T18:51:30.639Z,40.23
2019-04-30T18:53:49.371Z,40.03
2019-04-30T18:56:21.457Z,41.63
2019-04-30T18:58:53.342Z,38.50
2019-04-30T19:01:25.178Z,40.60
2019-04-30T19:03:58.431Z,39.37
2019-04-30T19:06:30.482Z,42.80
2019-04-30T19:09:20.074Z,39.63
2019-04-30T19:12:02.645Z,39.87
2019-04-30T19:15:40.987Z,40.63
2019-04-30T19:18:18.100Z,41.40
2019-04-30T19:20:52.776Z,43.67
2019-04-30T19:23:24.610Z,48.43
2019-04-30T19:25:56.560Z,43.93
2019-04-30T19:28:28.740Z,43.63
2019-04-30T19:31:01.073Z,46.47
2019-04-30T19:33:32.944Z,42.93
2019-04-30T19:36:04.709Z,44.70
2019-04-30T19:38:36.460Z,45.00
2019-04-30T19:41:09.100Z,45.00
2019-04-30T19:43:44.028Z,45.77
2019-04-30T19:46:15.601Z,51.73
2019-04-30T19:48:50.473Z,42.63
2019-04-30T19:51:21.159Z,41.80
2019-04-30T19:53:53.206Z,38.87
2019-04-30T19:56:24.938Z,40.87
2019-04-30T19:59:02.899Z,46.90
2019-04-30T20:01:29.994Z,44.17
2019-04-30T20:04:01.685Z,40.30
2019-04-30T20:06:33.426Z,40.10
2019-04-30T20:09:09.001Z,41.30
2019-04-30T20:11:42.776Z,41.20
2019-04-30T20:14:16.070Z,45.13
2019-04-30T20:16:48.653Z,42.97
2019-04-30T20:19:20.657Z,44.60
2019-04-30T20:21:53.910Z,49.83
2019-04-30T20:24:26.313Z,46.17
2019-04-30T20:27:05.008Z,46.60
2019-04-30T20:29:31.828Z,46.57
2019-04-30T20:32:03.606Z,52.80
2019-04-30T20:34:35.334Z,47.90
2019-04-30T20:37:08.668Z,49.40
2019-04-30T20:39:49.642Z,51.70
2019-04-30T20:42:21.280Z,47.30
2019-04-30T20:44:54.287Z,48.87
2019-04-30T20:47:26.104Z,52.83
2019-04-30T20:49:57.945Z,54.93
2019-04-30T20:52:32.242Z,59.83
2019-04-30T20:55:03.346Z,57.43
2019-04-30T20:57:39.500Z,55.30
2019-04-30T21:00:12.336Z,69.80
2019-04-30T21:02:44.220Z,61.90
2019-04-30T21:05:15.993Z,63.47
2019-04-30T21:07:47.832Z,63.10
2019-04-30T21:10:20.019Z,65.10
2019-04-30T21:12:51.710Z,73.30
2019-04-30T21:15:23.568Z,64.57
2019-04-30T21:17:55.354Z,68.57
2019-04-30T21:20:29.147Z,72.83
2019-04-30T21:23:01.035Z,66.07
2019-04-30T21:25:32.896Z,70.60
2019-04-30T21:28:04.892Z,67.03
2019-04-30T21:30:36.752Z,66.50
2019-04-30T21:33:30.433Z,69.97
2019-04-30T21:36:10.186Z,83.60
2019-04-30T21:38:41.896Z,78.33
2019-04-30T21:41:13.538Z,84.80
2019-04-30T21:43:45.170Z,87.30
2019-04-30T21:46:19.360Z,87.13
2019-04-30T21:48:51.465Z,92.30
2019-04-30T21:51:23.258Z,94.10
2019-04-30T21:53:54.946Z,86.80
2019-04-30T21:56:26.750Z,80.60
2019-04-30T21:58:58.463Z,82.90
2019-04-30T22:01:32.359Z,89.63
2019-04-30T22:04:05.869Z,79.93
2019-04-30T22:06:44.881Z,90.13
2019-04-30T22:09:19.918Z,71.27
2019-04-30T22:11:53.969Z,77.47
2019-04-30T22:14:26.063Z,86.03
2019-04-30T22:16:59.389Z,75.73
2019-04-30T22:19:31.338Z,70.93
2019-04-30T22:22:03.012Z,71.57
2019-04-30T22:24:34.696Z,74.40
2019-04-30T22:27:06.320Z,72.33
2019-04-30T22:29:41.870Z,58.93
2019-04-30T22:32:11.598Z,57.93
2019-04-30T22:34:46.241Z,62.27
2019-04-30T22:37:19.110Z,58.90
2019-04-30T22:39:56.952Z,57.57
2019-04-30T22:42:39.546Z,58.50
2019-04-30T22:45:40.461Z,58.33
2019-04-30T22:48:11.838Z,58.50
2019-04-30T22:50:43.618Z,58.40
2019-04-30T22:53:17.504Z,62.60
2019-04-30T22:55:49.177Z,61.63
2019-04-30T22:58:20.774Z,62.73
2019-04-30T23:01:02.550Z,53.50
2019-04-30T23:03:37.429Z,54.87
2019-04-30T23:06:09.298Z,53.30
2019-04-30T23:08:42.697Z,56.37
2019-04-30T23:11:17.548Z,53.00
2019-04-30T23:13:49.179Z,47.13
2019-04-30T23:16:20.801Z,46.40
2019-04-30T23:18:52.407Z,46.17
2019-04-30T23:21:26.831Z,49.20
2019-04-30T23:23:58.434Z,43.67
2019-04-30T23:26:33.424Z,47.10
2019-04-30T23:29:05.255Z,44.83
2019-04-30T23:31:36.785Z,47.37
2019-04-30T23:34:17.621Z,48.13
2019-04-30T23:36:44.862Z,49.20
2019-04-30T23:39:16.544Z,47.50
2019-04-30T23:41:51.226Z,46.27
2019-04-30T23:44:22.909Z,65.73
2019-04-30T23:46:55.018Z,46.17
2019-04-30T23:49:35.619Z,46.47
2019-04-30T23:52:03.190Z,45.43
2019-04-30T23:54:34.897Z,48.33
2019-04-30T23:57:07.977Z,44.73
2019-04-30T23:59:39.833Z,43.57
